Celle, Germany

3:03 AM CEST on July 28, 2016 (GMT +0200)
Neues Land | | Change Station

Elev 141 ft 52.60 °N, 10.06 °E | Updated 8 minutes ago

Mostly Cloudy
Mostly Cloudy
67.6 °F
Feels Like 67.6 °F
N
1.2
Wind Variable Wind from SSE
Gusts 2.5 mph

Today
High -- | Low -- °F
--% Chance of Precip.
Yesterday
High -- | Low -- °F
Precip. -- in
Pressure 29.98 in
Visibility 6.2 miles
Clouds Mostly Cloudy 2200 ft
Mostly Cloudy 3700 ft
Dew Point 57 °F
Humidity 68%
Rainfall 0.00 in
Snow Depth Not available.
5:33 AM 9:18 PM
Last Quarter, 38% visible
METAR EDDV 280050Z 25010KT 220V280 9999 BKN022 BKN037 18/16 Q1015
Pressure 29.98 in
Visibility 6.2 miles
Clouds Mostly Cloudy 2200 ft
Mostly Cloudy 3700 ft
Dew Point 57 °F
Humidity 68%
Rainfall 0.00 in
Snow Depth Not available.
5:33 AM 9:18 PM
Last Quarter, 38% visible
METAR EDDV 280050Z 25010KT 220V280 9999 BKN022 BKN037 18/16 Q1015

10-Day Weather Forecast

×

Almanac

Astronomy

Jul. 28, 2016 Rise Set
Actual Time
Civil Twilight
Nautical Twilight
Astronomical Twilight
Moon
Length of Visible Light
Length of Day
Tomorrow will be .
, % of the Moon is Illuminated

Today's Extremes

Country Highs Country Lows

Community

WunderPhotos

Upload Photos

1,927,987 photos uploaded!

WunderBlog® & News

Nearby

Air Quality

  Air Quality AQ Index Pollutant
Not available.

Snow Depth

Station Depth Elevation

Earthquake Activity

City Distance Mag. Time & Date
Minimum magnitude displayed is 2.5.

Coastal Water Temperatures

Place Temperature

Stations

Nearby Weather Stations

Station Location Temp. Windchill Dew Point Humidity Wind Precip. Elev Updated Type